sensor_id;sensor_type;location;lat;lon;timestamp;temperature;humidity
40660;DHT22;26753;45.544;9.232;2023-04-25T00:02:24;17.50;99.90
40660;DHT22;26753;45.544;9.232;2023-04-25T00:04:50;17.40;99.90
40660;DHT22;26753;45.544;9.232;2023-04-25T00:07:16;17.40;99.90
40660;DHT22;26753;45.544;9.232;2023-04-25T00:09:42;17.30;99.90
40660;DHT22;26753;45.544;9.232;2023-04-25T00:12:07;17.30;99.90
40660;DHT22;26753;45.544;9.232;2023-04-25T00:14:33;17.30;99.90
40660;DHT22;26753;45.544;9.232;2023-04-25T00:17:01;17.40;99.90
40660;DHT22;26753;45.544;9.232;2023-04-25T00:19:28;17.40;99.90
40660;DHT22;26753;45.544;9.232;2023-04-25T00:21:56;17.40;99.90
40660;DHT22;26753;45.544;9.232;2023-04-25T00:24:22;17.30;99.90
40660;DHT22;26753;45.544;9.232;2023-04-25T00:26:48;17.40;99.90
40660;DHT22;26753;45.544;9.232;2023-04-25T00:29:13;17.40;99.90
40660;DHT22;26753;45.544;9.232;2023-04-25T00:31:39;17.30;99.90
40660;DHT22;26753;45.544;9.232;2023-04-25T00:34:05;17.30;99.90
40660;DHT22;26753;45.544;9.232;2023-04-25T00:36:31;17.30;99.90
40660;DHT22;26753;45.544;9.232;2023-04-25T00:38:57;17.30;99.90
40660;DHT22;26753;45.544;9.232;2023-04-25T00:41:23;17.30;99.90
40660;DHT22;26753;45.544;9.232;2023-04-25T00:43:50;17.30;99.90
40660;DHT22;26753;45.544;9.232;2023-04-25T00:46:16;17.40;99.90
40660;DHT22;26753;45.544;9.232;2023-04-25T00:48:42;17.40;99.90
40660;DHT22;26753;45.544;9.232;2023-04-25T00:51:07;17.50;99.90
40660;DHT22;26753;45.544;9.232;2023-04-25T00:53:34;17.50;99.90
40660;DHT22;26753;45.544;9.232;2023-04-25T00:56:00;17.50;99.90
40660;DHT22;26753;45.544;9.232;2023-04-25T00:58:26;17.40;99.90
40660;DHT22;26753;45.544;9.232;2023-04-25T01:00:52;17.40;99.90
40660;DHT22;26753;45.544;9.232;2023-04-25T01:03:18;17.40;99.90
40660;DHT22;26753;45.544;9.232;2023-04-25T01:05:45;17.40;99.90
40660;DHT22;26753;45.544;9.232;2023-04-25T01:08:10;17.30;99.90
40660;DHT22;26753;45.544;9.232;2023-04-25T01:10:36;17.30;99.90
40660;DHT22;26753;45.544;9.232;2023-04-25T01:13:02;17.10;99.90
40660;DHT22;26753;45.544;9.232;2023-04-25T01:15:28;17.20;99.90
40660;DHT22;26753;45.544;9.232;2023-04-25T01:17:53;17.10;99.90
40660;DHT22;26753;45.544;9.232;2023-04-25T01:20:20;17.10;99.90
40660;DHT22;26753;45.544;9.232;2023-04-25T01:22:46;17.20;99.90
40660;DHT22;26753;45.544;9.232;2023-04-25T01:25:12;17.10;99.90
40660;DHT22;26753;45.544;9.232;2023-04-25T01:27:37;17.10;99.90
40660;DHT22;26753;45.544;9.232;2023-04-25T01:30:03;17.10;99.90
40660;DHT22;26753;45.544;9.232;2023-04-25T01:32:32;17.10;99.90
40660;DHT22;26753;45.544;9.232;2023-04-25T01:35:06;17.10;99.90
40660;DHT22;26753;45.544;9.232;2023-04-25T01:37:36;17.20;99.90
40660;DHT22;26753;45.544;9.232;2023-04-25T01:40:02;17.20;99.90
40660;DHT22;26753;45.544;9.232;2023-04-25T01:42:31;17.30;99.90
40660;DHT22;26753;45.544;9.232;2023-04-25T01:44:56;17.20;99.90
40660;DHT22;26753;45.544;9.232;2023-04-25T01:47:22;17.30;99.90
40660;DHT22;26753;45.544;9.232;2023-04-25T01:49:47;17.30;99.90
40660;DHT22;26753;45.544;9.232;2023-04-25T01:52:13;17.20;99.90
40660;DHT22;26753;45.544;9.232;2023-04-25T01:54:39;17.20;99.90
40660;DHT22;26753;45.544;9.232;2023-04-25T01:57:09;17.20;99.90
40660;DHT22;26753;45.544;9.232;2023-04-25T01:59:35;17.10;99.90
40660;DHT22;26753;45.544;9.232;2023-04-25T02:02:01;17.10;99.90
40660;DHT22;26753;45.544;9.232;2023-04-25T02:04:30;17.00;99.90
40660;DHT22;26753;45.544;9.232;2023-04-25T02:06:58;16.90;99.90
40660;DHT22;26753;45.544;9.232;2023-04-25T02:09:27;17.00;99.90
40660;DHT22;26753;45.544;9.232;2023-04-25T02:11:52;16.90;99.90
40660;DHT22;26753;45.544;9.232;2023-04-25T02:14:18;16.90;99.90
40660;DHT22;26753;45.544;9.232;2023-04-25T02:16:44;16.80;99.90
40660;DHT22;26753;45.544;9.232;2023-04-25T02:19:10;16.70;99.90
40660;DHT22;26753;45.544;9.232;2023-04-25T02:21:36;16.70;99.90
40660;DHT22;26753;45.544;9.232;2023-04-25T02:24:02;16.70;99.90
40660;DHT22;26753;45.544;9.232;2023-04-25T02:26:28;16.70;99.90
40660;DHT22;26753;45.544;9.232;2023-04-25T02:28:54;16.70;99.90
40660;DHT22;26753;45.544;9.232;2023-04-25T02:31:20;16.60;99.90
40660;DHT22;26753;45.544;9.232;2023-04-25T02:33:46;17.10;99.90
40660;DHT22;26753;45.544;9.232;2023-04-25T02:36:11;16.60;99.90
40660;DHT22;26753;45.544;9.232;2023-04-25T02:38:37;16.60;99.90
40660;DHT22;26753;45.544;9.232;2023-04-25T02:41:02;16.60;99.90
40660;DHT22;26753;45.544;9.232;2023-04-25T02:43:28;16.50;99.90
40660;DHT22;26753;45.544;9.232;2023-04-25T02:45:53;16.50;99.90
40660;DHT22;26753;45.544;9.232;2023-04-25T02:48:19;16.50;99.90
40660;DHT22;26753;45.544;9.232;2023-04-25T02:50:45;16.40;99.90
40660;DHT22;26753;45.544;9.232;2023-04-25T02:53:10;16.50;99.90
40660;DHT22;26753;45.544;9.232;2023-04-25T02:55:39;16.50;99.90
40660;DHT22;26753;45.544;9.232;2023-04-25T02:58:04;16.50;99.90
40660;DHT22;26753;45.544;9.232;2023-04-25T03:00:30;16.50;99.90
40660;DHT22;26753;45.544;9.232;2023-04-25T03:02:56;16.50;99.90
40660;DHT22;26753;45.544;9.232;2023-04-25T03:05:21;16.40;99.90
40660;DHT22;26753;45.544;9.232;2023-04-25T03:07:47;16.40;99.90
40660;DHT22;26753;45.544;9.232;2023-04-25T03:10:12;16.30;99.90
40660;DHT22;26753;45.544;9.232;2023-04-25T03:12:38;16.30;99.90
40660;DHT22;26753;45.544;9.232;2023-04-25T03:15:04;16.40;99.90
40660;DHT22;26753;45.544;9.232;2023-04-25T03:17:29;16.30;99.90
40660;DHT22;26753;45.544;9.232;2023-04-25T03:19:55;16.30;99.90
40660;DHT22;26753;45.544;9.232;2023-04-25T03:22:21;16.30;99.90
40660;DHT22;26753;45.544;9.232;2023-04-25T03:24:46;16.20;99.90
40660;DHT22;26753;45.544;9.232;2023-04-25T03:27:12;16.30;99.90
40660;DHT22;26753;45.544;9.232;2023-04-25T03:29:38;16.30;99.90
40660;DHT22;26753;45.544;9.232;2023-04-25T03:32:03;16.20;99.90
40660;DHT22;26753;45.544;9.232;2023-04-25T03:34:29;16.20;99.90
40660;DHT22;26753;45.544;9.232;2023-04-25T03:36:55;16.10;99.90
40660;DHT22;26753;45.544;9.232;2023-04-25T03:39:21;16.10;99.90
40660;DHT22;26753;45.544;9.232;2023-04-25T03:41:46;16.00;99.90
40660;DHT22;26753;45.544;9.232;2023-04-25T03:44:12;16.00;99.90
40660;DHT22;26753;45.544;9.232;2023-04-25T03:46:37;15.90;99.90
40660;DHT22;26753;45.544;9.232;2023-04-25T03:49:03;15.90;99.90
40660;DHT22;26753;45.544;9.232;2023-04-25T03:51:28;15.80;99.90
40660;DHT22;26753;45.544;9.232;2023-04-25T03:53:57;15.80;99.90
40660;DHT22;26753;45.544;9.232;2023-04-25T03:56:23;15.80;99.90
40660;DHT22;26753;45.544;9.232;2023-04-25T03:58:48;15.70;99.90
40660;DHT22;26753;45.544;9.232;2023-04-25T04:01:14;15.70;99.90
40660;DHT22;26753;45.544;9.232;2023-04-25T04:03:40;15.70;99.90
40660;DHT22;26753;45.544;9.232;2023-04-25T04:06:05;15.60;99.90
40660;DHT22;26753;45.544;9.232;2023-04-25T04:08:32;15.60;99.90
40660;DHT22;26753;45.544;9.232;2023-04-25T04:10:57;15.60;99.90
40660;DHT22;26753;45.544;9.232;2023-04-25T04:13:23;15.60;99.90
40660;DHT22;26753;45.544;9.232;2023-04-25T04:15:49;15.50;99.90
40660;DHT22;26753;45.544;9.232;2023-04-25T04:18:14;15.60;99.90
40660;DHT22;26753;45.544;9.232;2023-04-25T04:20:40;15.50;99.90
40660;DHT22;26753;45.544;9.232;2023-04-25T04:23:06;15.40;99.90
40660;DHT22;26753;45.544;9.232;2023-04-25T04:25:31;15.40;99.90
40660;DHT22;26753;45.544;9.232;2023-04-25T04:27:57;15.40;99.90
40660;DHT22;26753;45.544;9.232;2023-04-25T04:30:24;15.30;99.90
40660;DHT22;26753;45.544;9.232;2023-04-25T04:32:50;15.30;99.90
40660;DHT22;26753;45.544;9.232;2023-04-25T04:35:19;15.30;99.90
40660;DHT22;26753;45.544;9.232;2023-04-25T04:37:44;15.30;99.90
40660;DHT22;26753;45.544;9.232;2023-04-25T04:40:11;15.40;99.90
40660;DHT22;26753;45.544;9.232;2023-04-25T04:42:36;15.30;99.90
40660;DHT22;26753;45.544;9.232;2023-04-25T04:45:02;15.30;99.90
40660;DHT22;26753;45.544;9.232;2023-04-25T04:47:28;15.30;99.90
40660;DHT22;26753;45.544;9.232;2023-04-25T04:49:56;15.30;99.90
40660;DHT22;26753;45.544;9.232;2023-04-25T04:52:22;15.40;99.90
40660;DHT22;26753;45.544;9.232;2023-04-25T04:54:47;15.40;99.90
40660;DHT22;26753;45.544;9.232;2023-04-25T04:57:13;15.40;99.90
40660;DHT22;26753;45.544;9.232;2023-04-25T04:59:39;15.50;99.90
40660;DHT22;26753;45.544;9.232;2023-04-25T05:02:04;15.60;99.90
40660;DHT22;26753;45.544;9.232;2023-04-25T05:04:30;15.60;99.90
40660;DHT22;26753;45.544;9.232;2023-04-25T05:06:55;15.60;99.90
40660;DHT22;26753;45.544;9.232;2023-04-25T05:09:21;15.70;99.90
40660;DHT22;26753;45.544;9.232;2023-04-25T05:11:51;15.80;99.90
40660;DHT22;26753;45.544;9.232;2023-04-25T05:14:16;16.00;99.90
40660;DHT22;26753;45.544;9.232;2023-04-25T05:16:42;16.00;99.90
40660;DHT22;26753;45.544;9.232;2023-04-25T05:19:08;16.10;99.90
40660;DHT22;26753;45.544;9.232;2023-04-25T05:21:34;16.20;99.90
40660;DHT22;26753;45.544;9.232;2023-04-25T05:24:00;16.30;99.90
40660;DHT22;26753;45.544;9.232;2023-04-25T05:26:25;16.50;99.90
40660;DHT22;26753;45.544;9.232;2023-04-25T05:28:51;16.40;99.90
40660;DHT22;26753;45.544;9.232;2023-04-25T05:31:17;16.50;99.90
40660;DHT22;26753;45.544;9.232;2023-04-25T05:33:42;16.50;99.90
40660;DHT22;26753;45.544;9.232;2023-04-25T05:36:08;16.60;99.90
40660;DHT22;26753;45.544;9.232;2023-04-25T05:38:34;16.70;99.90
40660;DHT22;26753;45.544;9.232;2023-04-25T05:41:00;16.80;99.90
40660;DHT22;26753;45.544;9.232;2023-04-25T05:43:25;16.60;99.90
40660;DHT22;26753;45.544;9.232;2023-04-25T05:45:51;17.00;99.90
40660;DHT22;26753;45.544;9.232;2023-04-25T05:48:16;17.00;99.90
40660;DHT22;26753;45.544;9.232;2023-04-25T05:50:42;17.10;99.90
40660;DHT22;26753;45.544;9.232;2023-04-25T05:53:07;17.20;99.90
40660;DHT22;26753;45.544;9.232;2023-04-25T05:55:33;17.30;99.90
40660;DHT22;26753;45.544;9.232;2023-04-25T05:57:58;17.30;99.90
40660;DHT22;26753;45.544;9.232;2023-04-25T06:00:24;17.30;99.90
40660;DHT22;26753;45.544;9.232;2023-04-25T06:02:50;17.40;99.90
40660;DHT22;26753;45.544;9.232;2023-04-25T06:05:16;17.50;99.90
40660;DHT22;26753;45.544;9.232;2023-04-25T06:07:44;17.60;99.90
40660;DHT22;26753;45.544;9.232;2023-04-25T06:10:12;17.80;99.90
40660;DHT22;26753;45.544;9.232;2023-04-25T06:12:40;17.80;99.90
40660;DHT22;26753;45.544;9.232;2023-04-25T06:15:06;18.00;99.90
40660;DHT22;26753;45.544;9.232;2023-04-25T06:17:32;18.00;99.90
40660;DHT22;26753;45.544;9.232;2023-04-25T06:19:58;18.00;99.90
40660;DHT22;26753;45.544;9.232;2023-04-25T06:22:23;17.90;99.90
40660;DHT22;26753;45.544;9.232;2023-04-25T06:24:49;17.70;99.90
40660;DHT22;26753;45.544;9.232;2023-04-25T06:27:15;17.40;99.90
40660;DHT22;26753;45.544;9.232;2023-04-25T06:29:40;17.50;99.90
40660;DHT22;26753;45.544;9.232;2023-04-25T06:32:06;17.60;99.90
40660;DHT22;26753;45.544;9.232;2023-04-25T06:34:31;17.70;99.90
40660;DHT22;26753;45.544;9.232;2023-04-25T06:36:57;17.60;99.90
40660;DHT22;26753;45.544;9.232;2023-04-25T06:39:22;17.70;99.90
40660;DHT22;26753;45.544;9.232;2023-04-25T06:41:49;17.90;99.90
40660;DHT22;26753;45.544;9.232;2023-04-25T06:44:15;18.00;99.90
40660;DHT22;26753;45.544;9.232;2023-04-25T06:46:40;18.00;99.90
40660;DHT22;26753;45.544;9.232;2023-04-25T06:49:06;18.00;99.90
40660;DHT22;26753;45.544;9.232;2023-04-25T06:51:32;17.90;99.90
40660;DHT22;26753;45.544;9.232;2023-04-25T06:53:57;18.00;99.90
40660;DHT22;26753;45.544;9.232;2023-04-25T06:56:23;18.20;99.90
40660;DHT22;26753;45.544;9.232;2023-04-25T06:58:59;18.10;99.90
40660;DHT22;26753;45.544;9.232;2023-04-25T07:01:32;18.10;99.90
40660;DHT22;26753;45.544;9.232;2023-04-25T07:03:58;19.60;99.90
40660;DHT22;26753;45.544;9.232;2023-04-25T07:06:26;19.80;99.90
40660;DHT22;26753;45.544;9.232;2023-04-25T07:08:53;18.10;99.90
40660;DHT22;26753;45.544;9.232;2023-04-25T07:11:19;18.00;99.90
40660;DHT22;26753;45.544;9.232;2023-04-25T07:13:45;18.00;99.90
40660;DHT22;26753;45.544;9.232;2023-04-25T07:16:14;18.00;99.90
40660;DHT22;26753;45.544;9.232;2023-04-25T07:18:39;18.10;99.90
40660;DHT22;26753;45.544;9.232;2023-04-25T07:21:05;18.30;99.90
40660;DHT22;26753;45.544;9.232;2023-04-25T07:23:31;18.40;99.90
40660;DHT22;26753;45.544;9.232;2023-04-25T07:25:56;18.50;99.90
40660;DHT22;26753;45.544;9.232;2023-04-25T07:28:22;18.50;99.90
40660;DHT22;26753;45.544;9.232;2023-04-25T07:30:47;18.60;99.90
40660;DHT22;26753;45.544;9.232;2023-04-25T07:33:13;18.60;99.90
40660;DHT22;26753;45.544;9.232;2023-04-25T07:35:39;18.70;99.90
40660;DHT22;26753;45.544;9.232;2023-04-25T07:38:05;18.60;99.90
40660;DHT22;26753;45.544;9.232;2023-04-25T07:40:35;18.40;99.90
40660;DHT22;26753;45.544;9.232;2023-04-25T07:43:00;18.20;99.90
40660;DHT22;26753;45.544;9.232;2023-04-25T07:45:26;18.40;99.90
40660;DHT22;26753;45.544;9.232;2023-04-25T07:47:55;18.70;99.90
40660;DHT22;26753;45.544;9.232;2023-04-25T07:50:20;18.90;99.90
40660;DHT22;26753;45.544;9.232;2023-04-25T07:52:46;18.90;99.90
40660;DHT22;26753;45.544;9.232;2023-04-25T07:55:12;18.60;99.90
40660;DHT22;26753;45.544;9.232;2023-04-25T07:57:38;18.50;99.90
40660;DHT22;26753;45.544;9.232;2023-04-25T08:00:04;18.40;99.90
40660;DHT22;26753;45.544;9.232;2023-04-25T08:02:30;18.50;99.90
40660;DHT22;26753;45.544;9.232;2023-04-25T08:04:55;18.60;99.90
40660;DHT22;26753;45.544;9.232;2023-04-25T08:07:21;18.40;99.90
40660;DHT22;26753;45.544;9.232;2023-04-25T08:09:47;18.70;99.90
40660;DHT22;26753;45.544;9.232;2023-04-25T08:12:13;18.80;99.90
40660;DHT22;26753;45.544;9.232;2023-04-25T08:14:38;18.90;99.90
40660;DHT22;26753;45.544;9.232;2023-04-25T08:17:05;18.90;99.90
40660;DHT22;26753;45.544;9.232;2023-04-25T08:19:33;19.10;99.90
40660;DHT22;26753;45.544;9.232;2023-04-25T08:21:59;19.00;99.90
40660;DHT22;26753;45.544;9.232;2023-04-25T08:24:28;19.00;99.90
40660;DHT22;26753;45.544;9.232;2023-04-25T08:26:53;19.10;99.90
40660;DHT22;26753;45.544;9.232;2023-04-25T08:29:19;19.10;99.90
40660;DHT22;26753;45.544;9.232;2023-04-25T08:31:45;19.40;99.90
40660;DHT22;26753;45.544;9.232;2023-04-25T08:34:10;19.80;99.90
40660;DHT22;26753;45.544;9.232;2023-04-25T08:36:36;19.70;99.90
40660;DHT22;26753;45.544;9.232;2023-04-25T08:39:02;19.50;99.90
40660;DHT22;26753;45.544;9.232;2023-04-25T08:41:28;19.70;99.90
40660;DHT22;26753;45.544;9.232;2023-04-25T08:43:53;19.90;99.90
40660;DHT22;26753;45.544;9.232;2023-04-25T08:46:29;20.20;99.90
40660;DHT22;26753;45.544;9.232;2023-04-25T08:48:58;20.20;99.90
40660;DHT22;26753;45.544;9.232;2023-04-25T08:51:25;20.10;99.90
40660;DHT22;26753;45.544;9.232;2023-04-25T08:53:53;20.10;99.90
40660;DHT22;26753;45.544;9.232;2023-04-25T08:56:21;20.00;99.90
40660;DHT22;26753;45.544;9.232;2023-04-25T08:58:48;20.20;99.90
40660;DHT22;26753;45.544;9.232;2023-04-25T09:01:15;20.50;99.90
40660;DHT22;26753;45.544;9.232;2023-04-25T09:03:42;20.80;99.90
40660;DHT22;26753;45.544;9.232;2023-04-25T09:06:08;21.00;99.90
40660;DHT22;26753;45.544;9.232;2023-04-25T09:08:36;21.00;99.90
40660;DHT22;26753;45.544;9.232;2023-04-25T09:11:01;21.20;99.90
40660;DHT22;26753;45.544;9.232;2023-04-25T09:13:27;21.10;99.90
40660;DHT22;26753;45.544;9.232;2023-04-25T09:15:54;21.20;99.90
40660;DHT22;26753;45.544;9.232;2023-04-25T09:18:30;20.80;99.90
40660;DHT22;26753;45.544;9.232;2023-04-25T09:20:56;21.00;99.90
40660;DHT22;26753;45.544;9.232;2023-04-25T09:23:22;21.10;99.90
40660;DHT22;26753;45.544;9.232;2023-04-25T09:25:52;21.10;99.90
40660;DHT22;26753;45.544;9.232;2023-04-25T09:28:24;20.90;99.90
40660;DHT22;26753;45.544;9.232;2023-04-25T09:30:54;20.80;99.90
40660;DHT22;26753;45.544;9.232;2023-04-25T09:33:30;20.60;99.90
40660;DHT22;26753;45.544;9.232;2023-04-25T09:36:03;20.20;99.90
40660;DHT22;26753;45.544;9.232;2023-04-25T09:38:29;20.40;99.90
40660;DHT22;26753;45.544;9.232;2023-04-25T09:40:55;20.70;99.90
40660;DHT22;26753;45.544;9.232;2023-04-25T09:43:24;20.50;99.90
40660;DHT22;26753;45.544;9.232;2023-04-25T09:45:51;20.40;99.90
40660;DHT22;26753;45.544;9.232;2023-04-25T09:48:18;20.50;99.90
40660;DHT22;26753;45.544;9.232;2023-04-25T09:50:45;20.50;99.90
40660;DHT22;26753;45.544;9.232;2023-04-25T09:53:12;20.50;99.90
40660;DHT22;26753;45.544;9.232;2023-04-25T09:55:38;20.60;99.90
40660;DHT22;26753;45.544;9.232;2023-04-25T09:58:05;20.60;99.90
40660;DHT22;26753;45.544;9.232;2023-04-25T10:00:32;20.70;99.90
40660;DHT22;26753;45.544;9.232;2023-04-25T10:03:00;20.90;99.90
40660;DHT22;26753;45.544;9.232;2023-04-25T10:05:26;21.10;99.90
40660;DHT22;26753;45.544;9.232;2023-04-25T10:07:52;21.10;99.90
40660;DHT22;26753;45.544;9.232;2023-04-25T10:10:18;21.20;99.90
40660;DHT22;26753;45.544;9.232;2023-04-25T10:12:45;21.40;99.90
40660;DHT22;26753;45.544;9.232;2023-04-25T10:15:11;21.80;99.90
40660;DHT22;26753;45.544;9.232;2023-04-25T10:17:37;22.00;99.90
40660;DHT22;26753;45.544;9.232;2023-04-25T10:20:04;22.30;99.90
40660;DHT22;26753;45.544;9.232;2023-04-25T10:22:37;22.10;99.90
40660;DHT22;26753;45.544;9.232;2023-04-25T10:25:03;22.40;99.90
40660;DHT22;26753;45.544;9.232;2023-04-25T10:27:30;21.90;99.90
40660;DHT22;26753;45.544;9.232;2023-04-25T10:30:03;21.80;99.90
40660;DHT22;26753;45.544;9.232;2023-04-25T10:32:32;22.20;99.90
40660;DHT22;26753;45.544;9.232;2023-04-25T10:35:04;22.10;99.90
40660;DHT22;26753;45.544;9.232;2023-04-25T10:37:35;22.10;99.90
40660;DHT22;26753;45.544;9.232;2023-04-25T10:40:07;22.20;99.90
40660;DHT22;26753;45.544;9.232;2023-04-25T10:42:36;22.40;99.90
40660;DHT22;26753;45.544;9.232;2023-04-25T10:45:04;22.50;99.50
40660;DHT22;26753;45.544;9.232;2023-04-25T10:47:36;22.70;98.50
40660;DHT22;26753;45.544;9.232;2023-04-25T10:50:08;22.80;99.00
40660;DHT22;26753;45.544;9.232;2023-04-25T10:52:34;23.00;97.80
40660;DHT22;26753;45.544;9.232;2023-04-25T10:55:03;23.10;97.40
40660;DHT22;26753;45.544;9.232;2023-04-25T10:57:29;23.20;96.80
40660;DHT22;26753;45.544;9.232;2023-04-25T11:00:00;23.10;96.20
40660;DHT22;26753;45.544;9.232;2023-04-25T11:02:30;23.20;95.50
40660;DHT22;26753;45.544;9.232;2023-04-25T11:04:56;23.40;95.40
40660;DHT22;26753;45.544;9.232;2023-04-25T11:07:37;23.30;95.30
40660;DHT22;26753;45.544;9.232;2023-04-25T11:10:03;23.30;95.50
40660;DHT22;26753;45.544;9.232;2023-04-25T11:12:30;23.30;95.60
40660;DHT22;26753;45.544;9.232;2023-04-25T11:15:02;23.60;94.80
40660;DHT22;26753;45.544;9.232;2023-04-25T11:17:28;23.80;94.40
40660;DHT22;26753;45.544;9.232;2023-04-25T11:19:55;23.90;94.00
40660;DHT22;26753;45.544;9.232;2023-04-25T11:22:22;24.10;93.10
40660;DHT22;26753;45.544;9.232;2023-04-25T11:24:47;24.40;92.90
40660;DHT22;26753;45.544;9.232;2023-04-25T11:27:13;24.60;92.30
40660;DHT22;26753;45.544;9.232;2023-04-25T11:29:39;24.50;92.50
40660;DHT22;26753;45.544;9.232;2023-04-25T11:32:04;24.10;92.60
40660;DHT22;26753;45.544;9.232;2023-04-25T11:34:31;23.70;93.10
40660;DHT22;26753;45.544;9.232;2023-04-25T11:36:58;23.80;92.90
40660;DHT22;26753;45.544;9.232;2023-04-25T11:39:24;23.90;93.00
40660;DHT22;26753;45.544;9.232;2023-04-25T11:41:51;24.00;93.00
40660;DHT22;26753;45.544;9.232;2023-04-25T11:44:17;23.70;93.30
40660;DHT22;26753;45.544;9.232;2023-04-25T11:46:43;23.70;93.30
40660;DHT22;26753;45.544;9.232;2023-04-25T11:49:11;23.90;92.50
40660;DHT22;26753;45.544;9.232;2023-04-25T11:51:40;24.10;92.00
40660;DHT22;26753;45.544;9.232;2023-04-25T11:54:06;24.50;91.40
40660;DHT22;26753;45.544;9.232;2023-04-25T11:56:32;24.20;91.50
40660;DHT22;26753;45.544;9.232;2023-04-25T11:58:58;24.50;91.20
40660;DHT22;26753;45.544;9.232;2023-04-25T12:01:25;25.00;90.50
40660;DHT22;26753;45.544;9.232;2023-04-25T12:03:51;25.30;89.50
40660;DHT22;26753;45.544;9.232;2023-04-25T12:06:17;25.10;90.10
40660;DHT22;26753;45.544;9.232;2023-04-25T12:09:04;25.00;90.20
40660;DHT22;26753;45.544;9.232;2023-04-25T12:11:30;25.10;90.40
40660;DHT22;26753;45.544;9.232;2023-04-25T12:14:02;25.00;90.10
40660;DHT22;26753;45.544;9.232;2023-04-25T12:16:39;24.60;90.00
40660;DHT22;26753;45.544;9.232;2023-04-25T12:19:06;24.00;90.30
40660;DHT22;26753;45.544;9.232;2023-04-25T12:21:32;23.70;90.80
40660;DHT22;26753;45.544;9.232;2023-04-25T12:24:21;23.50;90.70
40660;DHT22;26753;45.544;9.232;2023-04-25T12:29:17;22.50;91.90
40660;DHT22;26753;45.544;9.232;2023-04-25T12:31:42;22.20;92.30
40660;DHT22;26753;45.544;9.232;2023-04-25T12:34:08;21.90;92.90
40660;DHT22;26753;45.544;9.232;2023-04-25T12:36:33;21.80;92.80
40660;DHT22;26753;45.544;9.232;2023-04-25T12:38:59;21.60;93.10
40660;DHT22;26753;45.544;9.232;2023-04-25T12:41:29;21.40;93.70
40660;DHT22;26753;45.544;9.232;2023-04-25T12:44:02;21.20;95.40
40660;DHT22;26753;45.544;9.232;2023-04-25T12:46:28;21.10;96.70
40660;DHT22;26753;45.544;9.232;2023-04-25T12:48:53;20.90;97.70
40660;DHT22;26753;45.544;9.232;2023-04-25T12:51:20;20.60;98.30
40660;DHT22;26753;45.544;9.232;2023-04-25T12:53:46;20.20;99.90
40660;DHT22;26753;45.544;9.232;2023-04-25T12:56:14;19.70;99.90
40660;DHT22;26753;45.544;9.232;2023-04-25T12:58:40;19.30;99.30
40660;DHT22;26753;45.544;9.232;2023-04-25T13:01:05;19.10;99.90
40660;DHT22;26753;45.544;9.232;2023-04-25T13:03:32;19.10;99.90
40660;DHT22;26753;45.544;9.232;2023-04-25T13:06:07;19.20;99.90
40660;DHT22;26753;45.544;9.232;2023-04-25T13:08:35;19.40;98.80
40660;DHT22;26753;45.544;9.232;2023-04-25T13:11:02;19.60;98.60
40660;DHT22;26753;45.544;9.232;2023-04-25T13:13:29;19.80;99.90
40660;DHT22;26753;45.544;9.232;2023-04-25T13:16:02;20.10;99.90
40660;DHT22;26753;45.544;9.232;2023-04-25T13:18:29;20.10;99.80
40660;DHT22;26753;45.544;9.232;2023-04-25T13:21:00;20.50;99.90
40660;DHT22;26753;45.544;9.232;2023-04-25T13:23:31;20.40;99.90
40660;DHT22;26753;45.544;9.232;2023-04-25T13:25:57;20.50;99.90
40660;DHT22;26753;45.544;9.232;2023-04-25T13:28:26;20.40;99.90
40660;DHT22;26753;45.544;9.232;2023-04-25T13:30:51;21.20;99.90
40660;DHT22;26753;45.544;9.232;2023-04-25T13:33:18;23.50;97.90
40660;DHT22;26753;45.544;9.232;2023-04-25T13:35:44;29.00;92.30
40660;DHT22;26753;45.544;9.232;2023-04-25T13:38:12;32.80;79.90
40660;DHT22;26753;45.544;9.232;2023-04-25T13:40:38;36.30;72.10
40660;DHT22;26753;45.544;9.232;2023-04-25T13:43:03;39.30;65.60
40660;DHT22;26753;45.544;9.232;2023-04-25T13:45:31;40.60;58.00
40660;DHT22;26753;45.544;9.232;2023-04-25T13:47:57;41.80;57.60
40660;DHT22;26753;45.544;9.232;2023-04-25T13:50:22;42.70;54.40
40660;DHT22;26753;45.544;9.232;2023-04-25T13:52:48;43.30;53.50
40660;DHT22;26753;45.544;9.232;2023-04-25T13:55:14;43.90;52.60
40660;DHT22;26753;45.544;9.232;2023-04-25T13:57:40;44.70;50.20
40660;DHT22;26753;45.544;9.232;2023-04-25T14:00:06;44.80;48.90
40660;DHT22;26753;45.544;9.232;2023-04-25T14:02:34;46.00;47.90
40660;DHT22;26753;45.544;9.232;2023-04-25T14:05:00;44.70;45.00
40660;DHT22;26753;45.544;9.232;2023-04-25T14:07:26;43.90;44.90
40660;DHT22;26753;45.544;9.232;2023-04-25T14:09:52;41.60;45.00
40660;DHT22;26753;45.544;9.232;2023-04-25T14:12:17;42.80;45.10
40660;DHT22;26753;45.544;9.232;2023-04-25T14:14:43;44.60;45.90
40660;DHT22;26753;45.544;9.232;2023-04-25T14:17:09;44.40;44.20
40660;DHT22;26753;45.544;9.232;2023-04-25T14:19:34;44.70;42.80
40660;DHT22;26753;45.544;9.232;2023-04-25T14:22:00;45.40;44.00
40660;DHT22;26753;45.544;9.232;2023-04-25T14:24:26;46.20;43.30
40660;DHT22;26753;45.544;9.232;2023-04-25T14:26:52;47.40;43.10
40660;DHT22;26753;45.544;9.232;2023-04-25T14:29:18;48.10;42.10
40660;DHT22;26753;45.544;9.232;2023-04-25T14:31:43;48.50;42.00
40660;DHT22;26753;45.544;9.232;2023-04-25T14:34:10;47.60;40.60
40660;DHT22;26753;45.544;9.232;2023-04-25T14:36:36;48.30;41.60
40660;DHT22;26753;45.544;9.232;2023-04-25T14:39:02;47.30;39.80
40660;DHT22;26753;45.544;9.232;2023-04-25T14:41:28;48.10;41.50
40660;DHT22;26753;45.544;9.232;2023-04-25T14:43:53;48.80;41.30
40660;DHT22;26753;45.544;9.232;2023-04-25T14:46:22;48.00;40.00
40660;DHT22;26753;45.544;9.232;2023-04-25T14:48:48;48.00;40.70
40660;DHT22;26753;45.544;9.232;2023-04-25T14:51:14;47.60;40.40
40660;DHT22;26753;45.544;9.232;2023-04-25T14:53:40;48.30;40.80
40660;DHT22;26753;45.544;9.232;2023-04-25T14:56:06;48.70;40.40
40660;DHT22;26753;45.544;9.232;2023-04-25T14:58:32;49.10;40.30
40660;DHT22;26753;45.544;9.232;2023-04-25T15:00:58;49.20;40.00
40660;DHT22;26753;45.544;9.232;2023-04-25T15:03:24;49.20;39.90
40660;DHT22;26753;45.544;9.232;2023-04-25T15:05:49;49.50;39.60
40660;DHT22;26753;45.544;9.232;2023-04-25T15:08:19;49.00;39.00
40660;DHT22;26753;45.544;9.232;2023-04-25T15:10:45;47.70;39.70
40660;DHT22;26753;45.544;9.232;2023-04-25T15:13:11;47.90;39.70
40660;DHT22;26753;45.544;9.232;2023-04-25T15:15:37;48.70;39.40
40660;DHT22;26753;45.544;9.232;2023-04-25T15:18:05;48.60;39.50
40660;DHT22;26753;45.544;9.232;2023-04-25T15:20:31;48.60;39.30
40660;DHT22;26753;45.544;9.232;2023-04-25T15:22:59;49.10;39.00
40660;DHT22;26753;45.544;9.232;2023-04-25T15:25:28;49.20;38.70
40660;DHT22;26753;45.544;9.232;2023-04-25T15:27:54;49.40;39.10
40660;DHT22;26753;45.544;9.232;2023-04-25T15:30:23;49.30;38.40